METAR Data
IDs: Format: Raw Decoded Include TAF

Data at: 1733 UTC 03 Jul 2020

KNQX 031653Z AUTO 19007KT 10SM CLR 33/25 A3000 RMK AO2 SLP157 T03280250 $